sensor_id;sensor_type;location;lat;lon;timestamp;pressure;altitude;pressure_sealevel;temperature;humidity
73085;BME280;62974;49.460;10.892;2022-11-20T00:00:24;97326.09;;;2.39;92.00
73085;BME280;62974;49.460;10.892;2022-11-20T00:02:51;97321.47;;;2.41;92.51
73085;BME280;62974;49.460;10.892;2022-11-20T00:05:20;97323.13;;;2.42;91.74
73085;BME280;62974;49.460;10.892;2022-11-20T00:07:48;97327.75;;;2.40;91.37
73085;BME280;62974;49.460;10.892;2022-11-20T00:10:15;97322.75;;;2.36;91.29
73085;BME280;62974;49.460;10.892;2022-11-20T00:12:42;97318.81;;;2.41;92.24
73085;BME280;62974;49.460;10.892;2022-11-20T00:15:10;97312.31;;;2.35;91.21
73085;BME280;62974;49.460;10.892;2022-11-20T00:17:37;97315.97;;;2.34;92.99
73085;BME280;62974;49.460;10.892;2022-11-20T00:20:05;97307.84;;;2.35;92.86
73085;BME280;62974;49.460;10.892;2022-11-20T00:22:34;97315.50;;;2.39;92.33
73085;BME280;62974;49.460;10.892;2022-11-20T00:25:02;97315.19;;;2.42;92.07
73085;BME280;62974;49.460;10.892;2022-11-20T00:27:29;97311.69;;;2.41;91.93
73085;BME280;62974;49.460;10.892;2022-11-20T00:29:57;97321.59;;;2.39;91.48
73085;BME280;62974;49.460;10.892;2022-11-20T00:32:24;97323.13;;;2.42;91.45
73085;BME280;62974;49.460;10.892;2022-11-20T00:34:52;97315.50;;;2.39;91.48
73085;BME280;62974;49.460;10.892;2022-11-20T00:37:19;97318.44;;;2.35;91.84
73085;BME280;62974;49.460;10.892;2022-11-20T00:39:48;97324.94;;;2.41;92.18
73085;BME280;62974;49.460;10.892;2022-11-20T00:42:15;97317.81;;;2.42;92.51
73085;BME280;62974;49.460;10.892;2022-11-20T00:44:43;97316.31;;;2.39;91.58
73085;BME280;62974;49.460;10.892;2022-11-20T00:47:10;97318.81;;;2.41;92.70
73085;BME280;62974;49.460;10.892;2022-11-20T00:49:38;97328.75;;;2.39;91.20
73085;BME280;62974;49.460;10.892;2022-11-20T00:52:05;97319.50;;;2.43;92.58
73085;BME280;62974;49.460;10.892;2022-11-20T00:54:33;97317.97;;;2.40;92.21
73085;BME280;62974;49.460;10.892;2022-11-20T00:57:01;97323.09;;;2.33;91.86
73085;BME280;62974;49.460;10.892;2022-11-20T00:59:29;97319.97;;;2.38;91.82
73085;BME280;62974;49.460;10.892;2022-11-20T01:01:56;97330.09;;;2.43;92.40
73085;BME280;62974;49.460;10.892;2022-11-20T01:04:24;97316.66;;;2.44;91.52
73085;BME280;62974;49.460;10.892;2022-11-20T01:06:51;97318.81;;;2.41;91.83
73085;BME280;62974;49.460;10.892;2022-11-20T01:09:19;97321.13;;;2.44;93.01
73085;BME280;62974;49.460;10.892;2022-11-20T01:11:47;97320.94;;;2.37;93.25
73085;BME280;62974;49.460;10.892;2022-11-20T01:14:17;97316.00;;;2.42;92.47
73085;BME280;62974;49.460;10.892;2022-11-20T01:16:47;97324.59;;;2.44;92.67
73085;BME280;62974;49.460;10.892;2022-11-20T01:19:17;97325.28;;;2.46;93.23
73085;BME280;62974;49.460;10.892;2022-11-20T01:21:48;97320.44;;;2.33;92.93
73085;BME280;62974;49.460;10.892;2022-11-20T01:24:17;97319.91;;;2.22;93.23
73085;BME280;62974;49.460;10.892;2022-11-20T01:26:47;97326.59;;;2.42;92.06
73085;BME280;62974;49.460;10.892;2022-11-20T01:29:18;97332.72;;;2.43;92.70
73085;BME280;62974;49.460;10.892;2022-11-20T01:31:47;97331.06;;;2.42;93.02
73085;BME280;62974;49.460;10.892;2022-11-20T01:34:17;97330.56;;;2.38;92.39
73085;BME280;62974;49.460;10.892;2022-11-20T01:36:46;97326.75;;;2.41;92.39
73085;BME280;62974;49.460;10.892;2022-11-20T01:39:15;97322.13;;;2.43;92.73
73085;BME280;62974;49.460;10.892;2022-11-20T01:41:43;97321.97;;;2.44;92.28
73085;BME280;62974;49.460;10.892;2022-11-20T01:44:57;97317.63;;;2.43;92.86
73085;BME280;62974;49.460;10.892;2022-11-20T01:47:30;97315.28;;;2.24;94.02
73085;BME280;62974;49.460;10.892;2022-11-20T01:50:03;97307.19;;;2.33;92.88
73085;BME280;62974;49.460;10.892;2022-11-20T01:52:34;97307.03;;;2.43;93.07
73085;BME280;62974;49.460;10.892;2022-11-20T01:55:05;97309.88;;;2.42;93.01
73085;BME280;62974;49.460;10.892;2022-11-20T01:57:35;97299.94;;;2.44;92.81
73085;BME280;62974;49.460;10.892;2022-11-20T02:00:05;97301.09;;;2.41;92.13
73085;BME280;62974;49.460;10.892;2022-11-20T02:02:34;97299.09;;;2.43;92.57
73085;BME280;62974;49.460;10.892;2022-11-20T02:05:07;97299.28;;;2.42;92.95
73085;BME280;62974;49.460;10.892;2022-11-20T02:07:37;97303.88;;;2.40;93.19
73085;BME280;62974;49.460;10.892;2022-11-20T02:10:06;97310.72;;;2.42;93.36
73085;BME280;62974;49.460;10.892;2022-11-20T02:12:34;97311.66;;;2.33;93.81
73085;BME280;62974;49.460;10.892;2022-11-20T02:15:20;97314.19;;;2.43;93.02
73085;BME280;62974;49.460;10.892;2022-11-20T02:17:55;97313.50;;;2.41;93.30
73085;BME280;62974;49.460;10.892;2022-11-20T02:20:22;97306.72;;;2.38;92.83
73085;BME280;62974;49.460;10.892;2022-11-20T02:22:54;97315.31;;;2.40;93.26
73085;BME280;62974;49.460;10.892;2022-11-20T02:25:23;97304.72;;;2.40;92.98
73085;BME280;62974;49.460;10.892;2022-11-20T02:27:51;97297.28;;;2.44;92.61
73085;BME280;62974;49.460;10.892;2022-11-20T02:30:19;97301.56;;;2.36;93.88
73085;BME280;62974;49.460;10.892;2022-11-20T02:32:46;97294.97;;;2.41;92.71
73085;BME280;62974;49.460;10.892;2022-11-20T02:35:42;97300.53;;;2.21;93.18
73085;BME280;62974;49.460;10.892;2022-11-20T02:38:10;97295.63;;;2.34;93.81
73085;BME280;62974;49.460;10.892;2022-11-20T02:40:39;97299.75;;;2.37;93.42
73085;BME280;62974;49.460;10.892;2022-11-20T02:43:06;97300.09;;;2.42;93.30
73085;BME280;62974;49.460;10.892;2022-11-20T02:45:34;97301.88;;;2.25;93.48
73085;BME280;62974;49.460;10.892;2022-11-20T02:48:02;97293.63;;;2.36;94.06
73085;BME280;62974;49.460;10.892;2022-11-20T02:50:29;97292.94;;;2.18;93.59
73085;BME280;62974;49.460;10.892;2022-11-20T02:52:57;97296.16;;;2.04;94.55
73085;BME280;62974;49.460;10.892;2022-11-20T02:55:24;97301.03;;;1.23;100.00
73085;BME280;62974;49.460;10.892;2022-11-20T02:57:53;97293.75;;;2.19;97.17
73085;BME280;62974;49.460;10.892;2022-11-20T03:00:21;97294.34;;;1.63;99.26
73085;BME280;62974;49.460;10.892;2022-11-20T03:02:48;97294.09;;;2.24;95.61
73085;BME280;62974;49.460;10.892;2022-11-20T03:05:16;97298.28;;;2.34;94.15
73085;BME280;62974;49.460;10.892;2022-11-20T03:07:43;97291.41;;;2.16;96.05
73085;BME280;62974;49.460;10.892;2022-11-20T03:10:11;97292.94;;;1.84;96.60
73085;BME280;62974;49.460;10.892;2022-11-20T03:12:38;97285.16;;;2.25;94.53
73085;BME280;62974;49.460;10.892;2022-11-20T03:15:08;97285.19;;;2.33;94.29
73085;BME280;62974;49.460;10.892;2022-11-20T03:17:36;97279.53;;;2.36;94.13
73085;BME280;62974;49.460;10.892;2022-11-20T03:20:04;97280.88;;;2.40;93.15
73085;BME280;62974;49.460;10.892;2022-11-20T03:22:32;97279.00;;;2.16;95.22
73085;BME280;62974;49.460;10.892;2022-11-20T03:25:00;97276.91;;;1.86;96.52
73085;BME280;62974;49.460;10.892;2022-11-20T03:27:31;97286.16;;;2.32;94.39
73085;BME280;62974;49.460;10.892;2022-11-20T03:29:59;97282.03;;;1.87;95.05
73085;BME280;62974;49.460;10.892;2022-11-20T03:32:28;97289.44;;;2.18;95.05
73085;BME280;62974;49.460;10.892;2022-11-20T03:34:56;97277.22;;;2.33;94.04
73085;BME280;62974;49.460;10.892;2022-11-20T03:37:23;97286.03;;;2.42;94.28
73085;BME280;62974;49.460;10.892;2022-11-20T03:39:50;97281.72;;;2.41;93.67
73085;BME280;62974;49.460;10.892;2022-11-20T03:42:18;97273.59;;;2.34;94.19
73085;BME280;62974;49.460;10.892;2022-11-20T03:45:16;97278.56;;;2.37;94.02
73085;BME280;62974;49.460;10.892;2022-11-20T03:47:45;97268.47;;;2.41;94.12
73085;BME280;62974;49.460;10.892;2022-11-20T03:50:13;97274.44;;;2.43;94.08
73085;BME280;62974;49.460;10.892;2022-11-20T03:52:41;97272.09;;;2.40;93.10
73085;BME280;62974;49.460;10.892;2022-11-20T03:55:08;97273.13;;;2.39;93.78
73085;BME280;62974;49.460;10.892;2022-11-20T03:57:36;97272.59;;;2.43;93.27
73085;BME280;62974;49.460;10.892;2022-11-20T04:00:04;97269.44;;;2.40;93.85
73085;BME280;62974;49.460;10.892;2022-11-20T04:02:32;97271.13;;;2.41;94.14
73085;BME280;62974;49.460;10.892;2022-11-20T04:05:01;97269.94;;;2.43;93.31
73085;BME280;62974;49.460;10.892;2022-11-20T04:07:28;97264.66;;;2.43;93.75
73085;BME280;62974;49.460;10.892;2022-11-20T04:09:56;97261.03;;;2.44;93.74
73085;BME280;62974;49.460;10.892;2022-11-20T04:12:23;97260.53;;;2.41;93.93
73085;BME280;62974;49.460;10.892;2022-11-20T04:14:51;97260.38;;;2.42;94.12
73085;BME280;62974;49.460;10.892;2022-11-20T04:17:18;97266.50;;;2.43;93.39
73085;BME280;62974;49.460;10.892;2022-11-20T04:19:46;97258.84;;;2.40;94.49
73085;BME280;62974;49.460;10.892;2022-11-20T04:22:15;97266.50;;;2.43;93.41
73085;BME280;62974;49.460;10.892;2022-11-20T04:24:42;97255.22;;;2.41;94.92
73085;BME280;62974;49.460;10.892;2022-11-20T04:27:10;97258.84;;;2.40;93.49
73085;BME280;62974;49.460;10.892;2022-11-20T04:29:37;97255.69;;;2.36;94.93
73085;BME280;62974;49.460;10.892;2022-11-20T04:32:05;97254.88;;;2.44;93.79
73085;BME280;62974;49.460;10.892;2022-11-20T04:34:32;97255.06;;;2.42;93.52
73085;BME280;62974;49.460;10.892;2022-11-20T04:37:00;97266.16;;;2.46;94.46
73085;BME280;62974;49.460;10.892;2022-11-20T04:39:29;97253.06;;;2.44;93.64
73085;BME280;62974;49.460;10.892;2022-11-20T04:41:56;97252.09;;;2.45;93.83
73085;BME280;62974;49.460;10.892;2022-11-20T04:44:38;97254.38;;;2.40;93.43
73085;BME280;62974;49.460;10.892;2022-11-20T04:47:05;97256.69;;;2.43;94.81
73085;BME280;62974;49.460;10.892;2022-11-20T04:49:33;97253.75;;;2.46;93.66
73085;BME280;62974;49.460;10.892;2022-11-20T04:52:01;97256.69;;;2.43;93.58
73085;BME280;62974;49.460;10.892;2022-11-20T04:54:29;97263.50;;;2.46;93.86
73085;BME280;62974;49.460;10.892;2022-11-20T04:56:57;97256.41;;;2.46;94.33
73085;BME280;62974;49.460;10.892;2022-11-20T04:59:24;97251.91;;;2.39;94.17
73085;BME280;62974;49.460;10.892;2022-11-20T05:01:52;97255.91;;;2.43;93.99
73085;BME280;62974;49.460;10.892;2022-11-20T05:04:19;97259.84;;;2.30;95.13
73085;BME280;62974;49.460;10.892;2022-11-20T05:06:47;97260.53;;;2.41;94.97
73085;BME280;62974;49.460;10.892;2022-11-20T05:09:14;97251.41;;;2.43;94.14
73085;BME280;62974;49.460;10.892;2022-11-20T05:11:43;97254.72;;;2.45;93.64
73085;BME280;62974;49.460;10.892;2022-11-20T05:14:16;97251.25;;;2.45;94.38
73085;BME280;62974;49.460;10.892;2022-11-20T05:16:44;97255.06;;;2.42;94.46
73085;BME280;62974;49.460;10.892;2022-11-20T05:19:11;97256.41;;;2.46;94.32
73085;BME280;62974;49.460;10.892;2022-11-20T05:21:39;97256.22;;;2.48;93.98
73085;BME280;62974;49.460;10.892;2022-11-20T05:24:06;97254.59;;;2.47;94.84
73085;BME280;62974;49.460;10.892;2022-11-20T05:26:34;97252.75;;;2.47;94.70
73085;BME280;62974;49.460;10.892;2022-11-20T05:29:02;97248.59;;;2.45;94.09
73085;BME280;62974;49.460;10.892;2022-11-20T05:31:30;97244.78;;;2.47;94.75
73085;BME280;62974;49.460;10.892;2022-11-20T05:33:57;97233.22;;;2.48;94.38
73085;BME280;62974;49.460;10.892;2022-11-20T05:36:25;97227.56;;;2.43;94.67
73085;BME280;62974;49.460;10.892;2022-11-20T05:38:52;97230.19;;;2.35;94.35
73085;BME280;62974;49.460;10.892;2022-11-20T05:41:26;97230.06;;;2.45;94.47
73085;BME280;62974;49.460;10.892;2022-11-20T05:43:55;97225.59;;;2.45;94.44
73085;BME280;62974;49.460;10.892;2022-11-20T05:46:24;97232.38;;;2.48;93.91
73085;BME280;62974;49.460;10.892;2022-11-20T05:48:55;97234.19;;;2.47;93.86
73085;BME280;62974;49.460;10.892;2022-11-20T05:51:23;97230.56;;;2.48;94.85
73085;BME280;62974;49.460;10.892;2022-11-20T05:53:51;97221.78;;;2.48;94.05
73085;BME280;62974;49.460;10.892;2022-11-20T05:56:19;97221.19;;;2.04;95.70
73085;BME280;62974;49.460;10.892;2022-11-20T05:58:47;97221.63;;;2.41;95.30
73085;BME280;62974;49.460;10.892;2022-11-20T06:01:19;97219.31;;;2.46;95.31
73085;BME280;62974;49.460;10.892;2022-11-20T06:03:49;97218.28;;;2.39;95.09
73085;BME280;62974;49.460;10.892;2022-11-20T06:06:18;97225.59;;;2.45;95.00
73085;BME280;62974;49.460;10.892;2022-11-20T06:08:46;97219.63;;;2.51;95.12
73085;BME280;62974;49.460;10.892;2022-11-20T06:11:15;97224.13;;;2.43;94.21
73085;BME280;62974;49.460;10.892;2022-11-20T06:13:43;97226.25;;;2.47;94.06
73085;BME280;62974;49.460;10.892;2022-11-20T06:16:13;97227.75;;;2.50;95.22
73085;BME280;62974;49.460;10.892;2022-11-20T06:18:41;97229.22;;;2.52;94.30
73085;BME280;62974;49.460;10.892;2022-11-20T06:21:11;97229.22;;;2.44;94.80
73085;BME280;62974;49.460;10.892;2022-11-20T06:23:39;97234.84;;;2.41;95.39
73085;BME280;62974;49.460;10.892;2022-11-20T06:26:08;97231.53;;;2.47;94.65
73085;BME280;62974;49.460;10.892;2022-11-20T06:28:37;97226.09;;;2.49;95.34
73085;BME280;62974;49.460;10.892;2022-11-20T06:31:06;97226.78;;;2.51;94.77
73085;BME280;62974;49.460;10.892;2022-11-20T06:33:34;97222.59;;;2.48;94.94
73085;BME280;62974;49.460;10.892;2022-11-20T06:36:02;97231.88;;;2.52;94.98
73085;BME280;62974;49.460;10.892;2022-11-20T06:38:38;97234.88;;;2.49;94.70
73085;BME280;62974;49.460;10.892;2022-11-20T06:41:06;97235.69;;;2.50;94.74
73085;BME280;62974;49.460;10.892;2022-11-20T06:43:33;97243.66;;;2.50;94.86
73085;BME280;62974;49.460;10.892;2022-11-20T06:46:01;97244.28;;;2.35;94.78
73085;BME280;62974;49.460;10.892;2022-11-20T06:48:29;97243.81;;;2.48;94.88
73085;BME280;62974;49.460;10.892;2022-11-20T06:50:57;97247.44;;;2.47;94.74
73085;BME280;62974;49.460;10.892;2022-11-20T06:53:26;97248.78;;;2.51;94.78
73085;BME280;62974;49.460;10.892;2022-11-20T06:55:56;97254.06;;;2.51;94.67
73085;BME280;62974;49.460;10.892;2022-11-20T06:58:26;97242.81;;;2.49;95.56
73085;BME280;62974;49.460;10.892;2022-11-20T07:00:57;97240.81;;;2.51;94.59
73085;BME280;62974;49.460;10.892;2022-11-20T07:03:25;97241.66;;;2.52;94.99
73085;BME280;62974;49.460;10.892;2022-11-20T07:05:54;97245.13;;;2.52;94.63
73085;BME280;62974;49.460;10.892;2022-11-20T07:08:21;97248.94;;;2.50;94.70
73085;BME280;62974;49.460;10.892;2022-11-20T07:10:49;97249.44;;;2.53;94.94
73085;BME280;62974;49.460;10.892;2022-11-20T07:13:18;97254.53;;;2.22;95.32
73085;BME280;62974;49.460;10.892;2022-11-20T07:15:45;97253.75;;;2.46;95.38
73085;BME280;62974;49.460;10.892;2022-11-20T07:18:13;97252.09;;;2.53;95.15
73085;BME280;62974;49.460;10.892;2022-11-20T07:20:40;97253.28;;;2.51;94.91
73085;BME280;62974;49.460;10.892;2022-11-20T07:23:08;97253.56;;;2.48;95.00
73085;BME280;62974;49.460;10.892;2022-11-20T07:25:35;97255.22;;;2.41;96.17
73085;BME280;62974;49.460;10.892;2022-11-20T07:28:03;97262.84;;;2.44;95.11
73085;BME280;62974;49.460;10.892;2022-11-20T07:30:32;97262.00;;;2.51;95.52
73085;BME280;62974;49.460;10.892;2022-11-20T07:32:59;97247.97;;;2.51;94.54
73085;BME280;62974;49.460;10.892;2022-11-20T07:35:26;97250.38;;;2.28;95.10
73085;BME280;62974;49.460;10.892;2022-11-20T07:37:54;97263.53;;;2.54;95.51
73085;BME280;62974;49.460;10.892;2022-11-20T07:40:22;97257.25;;;2.55;94.61
73085;BME280;62974;49.460;10.892;2022-11-20T07:42:50;97257.41;;;2.53;95.02
73085;BME280;62974;49.460;10.892;2022-11-20T07:45:18;97257.56;;;2.60;94.88
73085;BME280;62974;49.460;10.892;2022-11-20T07:47:47;97263.22;;;2.65;95.07
73085;BME280;62974;49.460;10.892;2022-11-20T07:50:16;97260.03;;;2.45;95.21
73085;BME280;62974;49.460;10.892;2022-11-20T07:52:44;97265.84;;;2.57;94.72
73085;BME280;62974;49.460;10.892;2022-11-20T07:55:11;97263.88;;;2.59;94.36
73085;BME280;62974;49.460;10.892;2022-11-20T07:57:39;97266.53;;;2.59;94.73
73085;BME280;62974;49.460;10.892;2022-11-20T08:00:08;97264.03;;;2.57;94.66
73085;BME280;62974;49.460;10.892;2022-11-20T08:02:37;97274.47;;;2.59;95.19
73085;BME280;62974;49.460;10.892;2022-11-20T08:05:07;97267.50;;;2.58;94.94
73085;BME280;62974;49.460;10.892;2022-11-20T08:07:36;97259.06;;;2.62;95.28
73085;BME280;62974;49.460;10.892;2022-11-20T08:10:04;97260.06;;;2.61;95.18
73085;BME280;62974;49.460;10.892;2022-11-20T08:12:32;97266.69;;;2.57;95.41
73085;BME280;62974;49.460;10.892;2022-11-20T08:15:17;97264.53;;;2.61;95.03
73085;BME280;62974;49.460;10.892;2022-11-20T08:17:44;97267.03;;;2.62;94.59
73085;BME280;62974;49.460;10.892;2022-11-20T08:20:33;97268.34;;;2.66;94.76
73085;BME280;62974;49.460;10.892;2022-11-20T08:23:03;97263.56;;;2.70;94.57
73085;BME280;62974;49.460;10.892;2022-11-20T08:25:32;97262.72;;;2.69;94.78
73085;BME280;62974;49.460;10.892;2022-11-20T08:28:01;97259.38;;;2.67;94.30
73085;BME280;62974;49.460;10.892;2022-11-20T08:30:43;97265.69;;;1.92;97.58
73085;BME280;62974;49.460;10.892;2022-11-20T08:33:12;97261.34;;;2.33;96.66
73085;BME280;62974;49.460;10.892;2022-11-20T08:35:40;97259.72;;;2.56;96.14
73085;BME280;62974;49.460;10.892;2022-11-20T08:38:09;97255.25;;;2.65;94.79
73085;BME280;62974;49.460;10.892;2022-11-20T08:40:36;97257.06;;;2.64;95.27
73085;BME280;62974;49.460;10.892;2022-11-20T08:43:04;97259.38;;;2.67;94.99
73085;BME280;62974;49.460;10.892;2022-11-20T08:45:31;97261.88;;;2.69;94.81
73085;BME280;62974;49.460;10.892;2022-11-20T08:48:01;97255.91;;;2.67;94.66
73085;BME280;62974;49.460;10.892;2022-11-20T08:50:29;97259.06;;;2.62;95.87
73085;BME280;62974;49.460;10.892;2022-11-20T08:53:03;97259.06;;;2.62;94.43
73085;BME280;62974;49.460;10.892;2022-11-20T08:55:31;97265.53;;;2.68;94.96
73085;BME280;62974;49.460;10.892;2022-11-20T08:58:02;97257.75;;;2.66;95.33
73085;BME280;62974;49.460;10.892;2022-11-20T09:00:30;97262.88;;;2.68;94.81
73085;BME280;62974;49.460;10.892;2022-11-20T09:02:58;97257.75;;;2.66;95.29
73085;BME280;62974;49.460;10.892;2022-11-20T09:05:27;97260.22;;;2.68;95.63
73085;BME280;62974;49.460;10.892;2022-11-20T09:07:55;97258.38;;;2.52;95.05
73085;BME280;62974;49.460;10.892;2022-11-20T09:10:24;97254.41;;;2.64;95.40
73085;BME280;62974;49.460;10.892;2022-11-20T09:12:53;97245.16;;;2.68;95.09
73085;BME280;62974;49.460;10.892;2022-11-20T09:15:21;97248.63;;;2.53;95.72
73085;BME280;62974;49.460;10.892;2022-11-20T09:17:53;97231.72;;;2.46;95.84
73085;BME280;62974;49.460;10.892;2022-11-20T09:20:20;97243.41;;;2.03;97.86
73085;BME280;62974;49.460;10.892;2022-11-20T09:22:48;97254.06;;;2.51;96.30
73085;BME280;62974;49.460;10.892;2022-11-20T09:25:16;97244.16;;;2.69;95.52
73085;BME280;62974;49.460;10.892;2022-11-20T09:27:45;97235.22;;;2.78;94.86
73085;BME280;62974;49.460;10.892;2022-11-20T09:30:14;97242.50;;;2.76;95.34
73085;BME280;62974;49.460;10.892;2022-11-20T09:32:42;97241.66;;;2.76;95.52
73085;BME280;62974;49.460;10.892;2022-11-20T09:35:10;97237.69;;;2.72;95.83
73085;BME280;62974;49.460;10.892;2022-11-20T09:37:38;97246.97;;;2.76;95.22
73085;BME280;62974;49.460;10.892;2022-11-20T09:40:06;97243.00;;;2.72;94.92
73085;BME280;62974;49.460;10.892;2022-11-20T09:42:49;97239.00;;;2.76;96.02
73085;BME280;62974;49.460;10.892;2022-11-20T09:45:23;97247.81;;;2.76;95.21
73085;BME280;62974;49.460;10.892;2022-11-20T09:48:10;97249.94;;;2.57;96.82
73085;BME280;62974;49.460;10.892;2022-11-20T09:50:43;97252.88;;;1.79;98.67
73085;BME280;62974;49.460;10.892;2022-11-20T09:53:21;97255.91;;;2.43;98.54
73085;BME280;62974;49.460;10.892;2022-11-20T09:55:49;97253.28;;;2.51;97.29
73085;BME280;62974;49.460;10.892;2022-11-20T09:58:25;97259.22;;;2.61;97.91
73085;BME280;62974;49.460;10.892;2022-11-20T10:01:00;97256.25;;;2.80;96.76
73085;BME280;62974;49.460;10.892;2022-11-20T10:03:39;97244.00;;;2.47;98.75
73085;BME280;62974;49.460;10.892;2022-11-20T10:06:12;97246.13;;;2.75;96.65
73085;BME280;62974;49.460;10.892;2022-11-20T10:08:45;97245.31;;;2.67;96.37
73085;BME280;62974;49.460;10.892;2022-11-20T10:11:21;97236.22;;;2.77;96.08
73085;BME280;62974;49.460;10.892;2022-11-20T10:14:00;97230.72;;;2.71;97.06
73085;BME280;62974;49.460;10.892;2022-11-20T10:16:41;97229.75;;;2.80;96.51
73085;BME280;62974;49.460;10.892;2022-11-20T10:19:24;97231.41;;;2.81;95.69
73085;BME280;62974;49.460;10.892;2022-11-20T10:22:04;97224.59;;;2.38;98.86
73085;BME280;62974;49.460;10.892;2022-11-20T10:24:42;97216.97;;;2.75;97.04
73085;BME280;62974;49.460;10.892;2022-11-20T10:27:25;97221.28;;;2.68;97.18
73085;BME280;62974;49.460;10.892;2022-11-20T10:30:02;97222.28;;;2.59;99.34
73085;BME280;62974;49.460;10.892;2022-11-20T10:32:36;97229.59;;;2.73;97.26
73085;BME280;62974;49.460;10.892;2022-11-20T10:35:14;97222.66;;;1.90;100.00
73085;BME280;62974;49.460;10.892;2022-11-20T10:37:47;97217.31;;;2.56;100.00
73085;BME280;62974;49.460;10.892;2022-11-20T10:40:22;97218.97;;;2.65;98.29
73085;BME280;62974;49.460;10.892;2022-11-20T10:42:53;97222.63;;;2.56;99.81
73085;BME280;62974;49.460;10.892;2022-11-20T10:45:36;97219.81;;;2.82;97.02
73085;BME280;62974;49.460;10.892;2022-11-20T10:48:14;97209.84;;;2.60;97.73
73085;BME280;62974;49.460;10.892;2022-11-20T10:50:47;97207.88;;;2.86;96.88
73085;BME280;62974;49.460;10.892;2022-11-20T10:53:28;97209.34;;;2.89;96.72
73085;BME280;62974;49.460;10.892;2022-11-20T10:56:03;97199.59;;;2.89;96.62
73085;BME280;62974;49.460;10.892;2022-11-20T10:58:38;97212.00;;;2.89;96.76
73085;BME280;62974;49.460;10.892;2022-11-20T11:01:15;97203.56;;;2.77;97.79
73085;BME280;62974;49.460;10.892;2022-11-20T11:03:43;97205.47;;;1.94;100.00
73085;BME280;62974;49.460;10.892;2022-11-20T11:06:16;97204.38;;;2.29;100.00
73085;BME280;62974;49.460;10.892;2022-11-20T11:08:47;97197.59;;;2.67;97.51
73085;BME280;62974;49.460;10.892;2022-11-20T11:11:21;97195.28;;;2.80;97.93
73085;BME280;62974;49.460;10.892;2022-11-20T11:13:50;97239.19;;;2.66;98.03
73085;BME280;62974;49.460;10.892;2022-11-20T11:16:23;97285.59;;;0.93;100.00
73085;BME280;62974;49.460;10.892;2022-11-20T11:18:51;97283.81;;;0.58;100.00
73085;BME280;62974;49.460;10.892;2022-11-20T11:21:23;97250.97;;;1.56;100.00
73085;BME280;62974;49.460;10.892;2022-11-20T11:23:59;97246.94;;;0.92;100.00
73085;BME280;62974;49.460;10.892;2022-11-20T11:26:57;97247.59;;;2.29;100.00
73085;BME280;62974;49.460;10.892;2022-11-20T11:29:25;97245.94;;;1.45;100.00
73085;BME280;62974;49.460;10.892;2022-11-20T11:32:04;97247.44;;;1.81;100.00
73085;BME280;62974;49.460;10.892;2022-11-20T11:34:32;97232.16;;;1.59;100.00
73085;BME280;62974;49.460;10.892;2022-11-20T11:37:01;97223.78;;;2.54;100.00
73085;BME280;62974;49.460;10.892;2022-11-20T11:39:31;97226.75;;;2.75;99.92
73085;BME280;62974;49.460;10.892;2022-11-20T11:42:00;97225.94;;;2.82;99.30
73085;BME280;62974;49.460;10.892;2022-11-20T11:44:30;97228.75;;;2.81;99.35
73085;BME280;62974;49.460;10.892;2022-11-20T11:47:23;97215.50;;;2.81;98.98
73085;BME280;62974;49.460;10.892;2022-11-20T11:50:00;97210.53;;;2.62;99.06
73085;BME280;62974;49.460;10.892;2022-11-20T11:52:28;97206.56;;;2.74;100.00
73085;BME280;62974;49.460;10.892;2022-11-20T11:54:58;97216.66;;;2.46;100.00
73085;BME280;62974;49.460;10.892;2022-11-20T11:57:42;97207.22;;;2.76;99.93
73085;BME280;62974;49.460;10.892;2022-11-20T12:00:14;97220.13;;;2.63;100.00
73085;BME280;62974;49.460;10.892;2022-11-20T12:02:52;97224.28;;;2.49;100.00
73085;BME280;62974;49.460;10.892;2022-11-20T12:05:23;97225.09;;;1.83;100.00
73085;BME280;62974;49.460;10.892;2022-11-20T12:07:55;97215.34;;;2.42;100.00
73085;BME280;62974;49.460;10.892;2022-11-20T12:10:38;97211.88;;;2.74;100.00
73085;BME280;62974;49.460;10.892;2022-11-20T12:13:18;97227.25;;;2.54;100.00
73085;BME280;62974;49.460;10.892;2022-11-20T12:15:48;97220.91;;;2.31;100.00
73085;BME280;62974;49.460;10.892;2022-11-20T12:18:18;97221.13;;;2.54;100.00
73085;BME280;62974;49.460;10.892;2022-11-20T12:20:56;97219.81;;;2.58;100.00
73085;BME280;62974;49.460;10.892;2022-11-20T12:23:28;97219.47;;;2.77;100.00
73085;BME280;62974;49.460;10.892;2022-11-20T12:26:05;97224.41;;;2.31;100.00
73085;BME280;62974;49.460;10.892;2022-11-20T12:28:47;97221.00;;;1.89;100.00
73085;BME280;62974;49.460;10.892;2022-11-20T12:31:30;97210.69;;;2.52;100.00
73085;BME280;62974;49.460;10.892;2022-11-20T12:34:15;97202.56;;;2.86;100.00
73085;BME280;62974;49.460;10.892;2022-11-20T12:36:52;97199.75;;;2.71;100.00
73085;BME280;62974;49.460;10.892;2022-11-20T12:39:34;97193.31;;;2.66;100.00
73085;BME280;62974;49.460;10.892;2022-11-20T12:42:31;97196.94;;;2.81;100.00
73085;BME280;62974;49.460;10.892;2022-11-20T12:45:32;97200.91;;;2.85;100.00
73085;BME280;62974;49.460;10.892;2022-11-20T12:48:19;97199.72;;;2.96;100.00
73085;BME280;62974;49.460;10.892;2022-11-20T12:51:12;97204.25;;;2.47;100.00
73085;BME280;62974;49.460;10.892;2022-11-20T12:53:50;97205.00;;;2.07;100.00
73085;BME280;62974;49.460;10.892;2022-11-20T12:56:30;97201.19;;;2.01;100.00
73085;BME280;62974;49.460;10.892;2022-11-20T12:59:07;97198.41;;;2.43;100.00
73085;BME280;62974;49.460;10.892;2022-11-20T13:01:45;97194.78;;;2.36;100.00
73085;BME280;62974;49.460;10.892;2022-11-20T13:04:28;97187.03;;;2.51;100.00
73085;BME280;62974;49.460;10.892;2022-11-20T13:07:05;97187.19;;;2.73;100.00
73085;BME280;62974;49.460;10.892;2022-11-20T13:09:38;97179.56;;;2.78;100.00
73085;BME280;62974;49.460;10.892;2022-11-20T13:12:11;97182.69;;;2.82;100.00
73085;BME280;62974;49.460;10.892;2022-11-20T13:14:42;97187.00;;;2.75;100.00
73085;BME280;62974;49.460;10.892;2022-11-20T13:17:17;97190.66;;;2.42;100.00